createdAt,value
2022-08-31T00:00:51.732Z,17.87
2022-08-31T00:01:51.805Z,17.80
2022-08-31T00:02:51.685Z,17.77
2022-08-31T00:03:51.668Z,17.77
2022-08-31T00:04:51.733Z,17.76
2022-08-31T00:05:51.674Z,17.73
2022-08-31T00:06:53.994Z,17.66
2022-08-31T00:07:51.628Z,17.65
2022-08-31T00:08:51.620Z,17.62
2022-08-31T00:09:51.606Z,17.58
2022-08-31T00:10:51.612Z,17.60
2022-08-31T00:11:51.581Z,17.58
2022-08-31T00:12:51.575Z,17.58
2022-08-31T00:13:51.576Z,17.55
2022-08-31T00:14:51.550Z,17.51
2022-08-31T00:15:51.573Z,17.49
2022-08-31T00:16:51.544Z,17.51
2022-08-31T00:17:51.544Z,17.54
2022-08-31T00:18:51.502Z,17.54
2022-08-31T00:19:51.527Z,17.49
2022-08-31T00:20:51.498Z,17.51
2022-08-31T00:21:51.474Z,17.49
2022-08-31T00:22:51.462Z,17.42
2022-08-31T00:23:51.474Z,17.39
2022-08-31T00:24:51.438Z,17.33
2022-08-31T00:25:51.460Z,17.36
2022-08-31T00:26:51.421Z,17.36
2022-08-31T00:27:51.412Z,17.38
2022-08-31T00:28:51.390Z,17.33
2022-08-31T00:29:51.400Z,17.28
2022-08-31T00:30:51.419Z,17.27
2022-08-31T00:31:51.425Z,17.27
2022-08-31T00:32:51.343Z,17.27
2022-08-31T00:33:51.342Z,17.30
2022-08-31T00:34:51.324Z,17.24
2022-08-31T00:35:51.328Z,17.18
2022-08-31T00:36:51.311Z,17.18
2022-08-31T00:37:51.287Z,17.18
2022-08-31T00:38:51.299Z,17.14
2022-08-31T00:39:51.276Z,17.12
2022-08-31T00:40:51.307Z,17.10
2022-08-31T00:41:51.294Z,17.05
2022-08-31T00:42:51.239Z,17.02
2022-08-31T00:43:51.227Z,17.00
2022-08-31T00:44:51.216Z,16.99
2022-08-31T00:45:51.410Z,16.98
2022-08-31T00:46:51.200Z,16.99
2022-08-31T00:47:51.276Z,16.98
2022-08-31T00:48:51.179Z,16.98
2022-08-31T00:49:51.184Z,16.87
2022-08-31T00:50:51.182Z,16.81
2022-08-31T00:51:51.147Z,16.78
2022-08-31T00:52:51.124Z,16.77
2022-08-31T00:53:51.120Z,16.78
2022-08-31T00:54:51.105Z,16.81
2022-08-31T00:55:51.107Z,16.81
2022-08-31T00:56:51.122Z,16.75
2022-08-31T00:57:51.074Z,16.73
2022-08-31T00:58:54.802Z,16.72
2022-08-31T00:59:51.074Z,16.67
2022-08-31T01:00:51.093Z,16.60
2022-08-31T01:01:51.132Z,16.62
2022-08-31T01:02:51.017Z,16.63
2022-08-31T01:03:51.002Z,16.59
2022-08-31T01:04:51.007Z,16.54
2022-08-31T01:05:51.010Z,16.59
2022-08-31T01:06:50.984Z,16.57
2022-08-31T01:07:50.991Z,16.60
2022-08-31T01:08:50.979Z,16.59
2022-08-31T01:09:55.984Z,16.57
2022-08-31T01:10:50.958Z,16.57
2022-08-31T01:11:50.920Z,16.57
2022-08-31T01:12:50.914Z,16.59
2022-08-31T01:13:50.890Z,16.52
2022-08-31T01:14:50.882Z,16.51
2022-08-31T01:15:51.335Z,16.48
2022-08-31T01:16:50.988Z,16.50
2022-08-31T01:17:50.846Z,16.50
2022-08-31T01:18:50.904Z,16.47
2022-08-31T01:19:50.837Z,16.48
2022-08-31T01:20:50.837Z,16.50
2022-08-31T01:21:50.809Z,16.48
2022-08-31T01:22:50.826Z,16.50
2022-08-31T01:23:50.778Z,16.48
2022-08-31T01:24:50.788Z,16.45
2022-08-31T01:25:50.791Z,16.47
2022-08-31T01:26:55.687Z,16.41
2022-08-31T01:27:50.746Z,16.36
2022-08-31T01:28:50.744Z,16.34
2022-08-31T01:29:50.716Z,16.30
2022-08-31T01:30:50.719Z,16.29
2022-08-31T01:31:50.802Z,16.27
2022-08-31T01:32:50.701Z,16.26
2022-08-31T01:33:50.687Z,16.30
2022-08-31T01:34:50.660Z,16.27
2022-08-31T01:35:50.687Z,16.29
2022-08-31T01:36:50.639Z,16.27
2022-08-31T01:37:50.644Z,16.26
2022-08-31T01:38:53.020Z,16.30
2022-08-31T01:39:50.632Z,16.32
2022-08-31T01:40:50.613Z,16.32
2022-08-31T01:41:50.589Z,16.23
2022-08-31T01:42:50.585Z,16.17
2022-08-31T01:43:50.563Z,16.18
2022-08-31T01:44:50.549Z,16.23
2022-08-31T01:45:50.554Z,16.16
2022-08-31T01:46:50.603Z,16.11
2022-08-31T01:47:50.518Z,16.11
2022-08-31T01:48:50.501Z,16.10
2022-08-31T01:49:50.526Z,16.11
2022-08-31T01:50:50.481Z,16.11
2022-08-31T01:51:50.499Z,16.06
2022-08-31T01:52:50.455Z,15.98
2022-08-31T01:53:50.461Z,15.92
2022-08-31T01:54:50.436Z,15.88
2022-08-31T01:55:50.423Z,15.86
2022-08-31T01:56:50.464Z,15.89
2022-08-31T01:57:50.410Z,15.89
2022-08-31T01:58:50.397Z,15.80
2022-08-31T01:59:50.379Z,15.81
2022-08-31T02:00:50.396Z,15.84
2022-08-31T02:01:50.504Z,15.84
2022-08-31T02:02:50.457Z,15.84
2022-08-31T02:03:50.351Z,15.86
2022-08-31T02:04:50.330Z,15.86
2022-08-31T02:05:50.313Z,15.86
2022-08-31T02:06:50.324Z,15.88
2022-08-31T02:07:50.290Z,15.88
2022-08-31T02:08:50.281Z,15.88
2022-08-31T02:09:50.307Z,15.88
2022-08-31T02:10:50.261Z,15.88
2022-08-31T02:11:50.293Z,15.88
2022-08-31T02:12:50.244Z,15.86
2022-08-31T02:13:50.230Z,15.78
2022-08-31T02:14:50.231Z,15.76
2022-08-31T02:15:50.275Z,15.73
2022-08-31T02:16:50.225Z,15.70
2022-08-31T02:17:50.184Z,15.71
2022-08-31T02:18:50.167Z,15.73
2022-08-31T02:19:50.155Z,15.67
2022-08-31T02:20:50.154Z,15.62
2022-08-31T02:21:50.163Z,15.64
2022-08-31T02:22:50.138Z,15.64
2022-08-31T02:23:50.117Z,15.62
2022-08-31T02:24:50.115Z,15.64
2022-08-31T02:25:50.094Z,15.62
2022-08-31T02:26:53.714Z,15.64
2022-08-31T02:27:50.071Z,15.62
2022-08-31T02:28:50.078Z,15.62
2022-08-31T02:29:50.589Z,15.60
2022-08-31T02:30:50.039Z,15.60
2022-08-31T02:31:50.119Z,15.58
2022-08-31T02:32:50.007Z,15.56
2022-08-31T02:33:49.994Z,15.58
2022-08-31T02:34:50.004Z,15.52
2022-08-31T02:35:53.608Z,15.51
2022-08-31T02:36:49.982Z,15.52
2022-08-31T02:37:49.964Z,15.55
2022-08-31T02:38:49.944Z,15.53
2022-08-31T02:39:50.188Z,15.55
2022-08-31T02:40:49.953Z,15.53
2022-08-31T02:41:49.945Z,15.53
2022-08-31T02:42:53.212Z,15.53
2022-08-31T02:43:49.886Z,15.52
2022-08-31T02:44:49.883Z,15.49
2022-08-31T02:45:51.009Z,15.46
2022-08-31T02:46:49.895Z,15.48
2022-08-31T02:47:49.840Z,15.48
2022-08-31T02:48:49.834Z,15.51
2022-08-31T02:49:49.825Z,15.51
2022-08-31T02:50:49.807Z,15.49
2022-08-31T02:51:49.842Z,15.49
2022-08-31T02:52:49.793Z,15.51
2022-08-31T02:53:49.765Z,15.51
2022-08-31T02:54:49.754Z,15.51
2022-08-31T02:55:49.751Z,15.51
2022-08-31T02:56:49.751Z,15.51
2022-08-31T02:57:49.727Z,15.48
2022-08-31T02:58:49.715Z,15.44
2022-08-31T02:59:49.721Z,15.41
2022-08-31T03:00:49.723Z,15.40
2022-08-31T03:01:49.743Z,15.40
2022-08-31T03:02:49.767Z,15.40
2022-08-31T03:03:49.658Z,15.40
2022-08-31T03:04:49.662Z,15.38
2022-08-31T03:05:49.637Z,15.38
2022-08-31T03:06:49.644Z,15.37
2022-08-31T03:07:49.612Z,15.38
2022-08-31T03:08:49.595Z,15.38
2022-08-31T03:09:49.583Z,15.38
2022-08-31T03:10:49.591Z,15.34
2022-08-31T03:11:49.603Z,15.35
2022-08-31T03:12:49.569Z,15.35
2022-08-31T03:13:49.535Z,15.31
2022-08-31T03:14:49.524Z,15.30
2022-08-31T03:15:49.595Z,15.30
2022-08-31T03:16:51.723Z,15.30
2022-08-31T03:17:49.492Z,15.23
2022-08-31T03:18:49.484Z,15.22
2022-08-31T03:19:49.473Z,15.20
2022-08-31T03:20:49.485Z,15.16
2022-08-31T03:21:55.955Z,15.16
2022-08-31T03:22:49.463Z,15.18
2022-08-31T03:23:49.476Z,15.16
2022-08-31T03:24:49.409Z,15.13
2022-08-31T03:25:49.425Z,15.15
2022-08-31T03:26:49.436Z,15.15
2022-08-31T03:27:49.377Z,15.11
2022-08-31T03:28:49.364Z,15.11
2022-08-31T03:29:49.354Z,15.09
2022-08-31T03:30:49.409Z,15.12
2022-08-31T03:31:49.354Z,15.12
2022-08-31T03:32:49.347Z,15.15
2022-08-31T03:33:49.313Z,15.13
2022-08-31T03:34:49.311Z,15.11
2022-08-31T03:35:49.293Z,15.07
2022-08-31T03:36:49.299Z,15.11
2022-08-31T03:37:49.254Z,15.04
2022-08-31T03:38:49.252Z,15.04
2022-08-31T03:39:49.231Z,15.03
2022-08-31T03:40:49.253Z,15.03
2022-08-31T03:41:49.225Z,15.04
2022-08-31T03:42:49.211Z,15.03
2022-08-31T03:43:49.208Z,15.00
2022-08-31T03:44:49.174Z,15.00
2022-08-31T03:45:49.245Z,14.98
2022-08-31T03:46:49.219Z,14.98
2022-08-31T03:47:49.142Z,14.97
2022-08-31T03:48:49.133Z,14.95
2022-08-31T03:49:49.131Z,14.97
2022-08-31T03:50:49.115Z,15.00
2022-08-31T03:51:49.123Z,15.00
2022-08-31T03:52:49.117Z,15.01
2022-08-31T03:53:49.072Z,15.00
2022-08-31T03:54:49.071Z,14.97
2022-08-31T03:55:49.050Z,14.95
2022-08-31T03:56:49.060Z,14.94
2022-08-31T03:57:49.036Z,14.94
2022-08-31T03:58:49.014Z,14.97
2022-08-31T03:59:49.009Z,14.95
2022-08-31T04:00:48.999Z,14.95
2022-08-31T04:01:49.140Z,14.93
2022-08-31T04:02:49.021Z,14.90
2022-08-31T04:03:48.962Z,14.91
2022-08-31T04:04:48.969Z,14.87
2022-08-31T04:05:48.942Z,14.85
2022-08-31T04:06:48.943Z,14.85
2022-08-31T04:07:48.916Z,14.83
2022-08-31T04:08:48.940Z,14.82
2022-08-31T04:09:48.896Z,14.82
2022-08-31T04:10:48.933Z,14.75
2022-08-31T04:11:48.914Z,14.74
2022-08-31T04:12:48.874Z,14.78
2022-08-31T04:13:48.885Z,14.79
2022-08-31T04:14:48.840Z,14.83
2022-08-31T04:15:48.878Z,14.86
2022-08-31T04:16:48.860Z,14.86
2022-08-31T04:17:48.844Z,14.87
2022-08-31T04:18:48.796Z,14.87
2022-08-31T04:19:48.786Z,14.83
2022-08-31T04:20:48.791Z,14.75
2022-08-31T04:21:48.812Z,14.74
2022-08-31T04:22:48.775Z,14.72
2022-08-31T04:23:48.782Z,14.72
2022-08-31T04:24:48.732Z,14.66
2022-08-31T04:25:48.721Z,14.66
2022-08-31T04:26:48.738Z,14.66
2022-08-31T04:27:48.714Z,14.64
2022-08-31T04:28:48.686Z,14.61
2022-08-31T04:29:48.687Z,14.56
2022-08-31T04:30:48.729Z,14.52
2022-08-31T04:31:48.702Z,14.49
2022-08-31T04:32:48.654Z,14.49
2022-08-31T04:33:48.644Z,14.53
2022-08-31T04:34:48.681Z,14.52
2022-08-31T04:35:48.626Z,14.52
2022-08-31T04:36:48.626Z,14.56
2022-08-31T04:37:48.603Z,14.57
2022-08-31T04:38:48.582Z,14.60
2022-08-31T04:39:50.803Z,14.54
2022-08-31T04:40:48.629Z,14.59
2022-08-31T04:41:48.580Z,14.59
2022-08-31T04:42:48.553Z,14.60
2022-08-31T04:43:48.530Z,14.60
2022-08-31T04:44:48.530Z,14.64
2022-08-31T04:45:48.538Z,14.66
2022-08-31T04:46:48.517Z,14.71
2022-08-31T04:47:48.486Z,14.72
2022-08-31T04:48:48.490Z,14.74
2022-08-31T04:49:48.485Z,14.74
2022-08-31T04:50:48.453Z,14.72
2022-08-31T04:51:48.469Z,14.74
2022-08-31T04:52:58.380Z,14.75
2022-08-31T04:53:48.427Z,14.75
2022-08-31T04:54:48.408Z,14.72
2022-08-31T04:55:48.411Z,14.71
2022-08-31T04:56:48.485Z,14.71
2022-08-31T04:57:48.369Z,14.72
2022-08-31T04:58:48.376Z,14.72
2022-08-31T04:59:48.412Z,14.63
2022-08-31T05:00:48.368Z,14.60
2022-08-31T05:01:48.446Z,14.61
2022-08-31T05:02:51.785Z,14.61
2022-08-31T05:03:48.312Z,14.63
2022-08-31T05:04:48.336Z,14.64
2022-08-31T05:05:48.290Z,14.66
2022-08-31T05:06:48.312Z,14.64
2022-08-31T05:07:48.272Z,14.59
2022-08-31T05:08:48.271Z,14.57
2022-08-31T05:09:48.280Z,14.57
2022-08-31T05:10:48.230Z,14.52
2022-08-31T05:11:48.262Z,14.49
2022-08-31T05:12:48.205Z,14.53
2022-08-31T05:13:48.219Z,14.54
2022-08-31T05:14:48.210Z,14.49
2022-08-31T05:15:48.544Z,14.48
2022-08-31T05:16:48.188Z,14.46
2022-08-31T05:17:48.155Z,14.42
2022-08-31T05:18:48.169Z,14.35
2022-08-31T05:19:48.139Z,14.36
2022-08-31T05:20:48.146Z,14.35
2022-08-31T05:21:48.146Z,14.27
2022-08-31T05:22:48.093Z,14.27
2022-08-31T05:23:48.096Z,14.31
2022-08-31T05:24:48.094Z,14.35
2022-08-31T05:25:48.137Z,14.39
2022-08-31T05:26:48.075Z,14.44
2022-08-31T05:27:48.095Z,14.42
2022-08-31T05:28:48.037Z,14.41
2022-08-31T05:29:48.044Z,14.42
2022-08-31T05:30:48.082Z,14.41
2022-08-31T05:31:51.636Z,14.38
2022-08-31T05:32:47.998Z,14.34
2022-08-31T05:33:48.005Z,14.35
2022-08-31T05:34:47.981Z,14.38
2022-08-31T05:35:47.977Z,14.38
2022-08-31T05:36:47.989Z,14.35
2022-08-31T05:37:47.957Z,14.36
2022-08-31T05:38:47.932Z,14.39
2022-08-31T05:39:47.916Z,14.42
2022-08-31T05:40:47.913Z,14.44
2022-08-31T05:41:47.949Z,14.39
2022-08-31T05:42:47.892Z,14.41
2022-08-31T05:43:47.885Z,14.41
2022-08-31T05:44:47.869Z,14.44
2022-08-31T05:45:47.903Z,14.46
2022-08-31T05:46:52.210Z,14.52
2022-08-31T05:47:47.862Z,14.48
2022-08-31T05:48:49.127Z,14.48
2022-08-31T05:49:47.808Z,14.45
2022-08-31T05:50:47.793Z,14.45
2022-08-31T05:51:47.889Z,14.46
2022-08-31T05:52:47.768Z,14.48
2022-08-31T05:53:47.761Z,14.53
2022-08-31T05:54:47.747Z,14.54
2022-08-31T05:55:47.735Z,14.56
2022-08-31T05:56:47.768Z,14.54
2022-08-31T05:57:47.727Z,14.59
2022-08-31T05:58:47.722Z,14.63
2022-08-31T05:59:47.708Z,14.72
2022-08-31T06:00:47.688Z,14.78
2022-08-31T06:01:47.780Z,14.85
2022-08-31T06:02:50.182Z,14.94
2022-08-31T06:03:47.680Z,14.98
2022-08-31T06:04:47.673Z,14.95
2022-08-31T06:05:47.649Z,14.95
2022-08-31T06:06:47.700Z,14.98
2022-08-31T06:07:47.627Z,15.05
2022-08-31T06:08:47.602Z,15.15
2022-08-31T06:09:47.608Z,15.22
2022-08-31T06:10:47.608Z,15.31
2022-08-31T06:11:47.586Z,15.30
2022-08-31T06:12:47.563Z,15.33
2022-08-31T06:13:47.590Z,15.35
2022-08-31T06:14:51.284Z,15.41
2022-08-31T06:15:47.652Z,15.48
2022-08-31T06:16:47.570Z,15.53
2022-08-31T06:17:47.504Z,15.58
2022-08-31T06:18:47.491Z,15.66
2022-08-31T06:19:47.530Z,15.64
2022-08-31T06:20:47.505Z,15.64
2022-08-31T06:21:50.444Z,15.66
2022-08-31T06:22:47.489Z,15.67
2022-08-31T06:23:47.436Z,15.73
2022-08-31T06:24:47.425Z,15.76
2022-08-31T06:25:47.463Z,15.80
2022-08-31T06:26:47.511Z,15.86
2022-08-31T06:27:47.391Z,15.93
2022-08-31T06:28:47.379Z,15.92
2022-08-31T06:29:47.367Z,15.92
2022-08-31T06:30:55.382Z,15.98
2022-08-31T06:31:47.489Z,15.93
2022-08-31T06:32:47.367Z,15.91
2022-08-31T06:33:47.354Z,15.85
2022-08-31T06:34:47.316Z,15.86
2022-08-31T06:35:47.346Z,15.74
2022-08-31T06:36:47.391Z,15.64
2022-08-31T06:37:47.298Z,15.70
2022-08-31T06:38:47.271Z,15.74
2022-08-31T06:39:47.245Z,15.77
2022-08-31T06:40:47.349Z,15.78
2022-08-31T06:41:47.235Z,15.78
2022-08-31T06:42:47.241Z,15.81
2022-08-31T06:43:47.204Z,15.86
2022-08-31T06:44:47.209Z,15.91
2022-08-31T06:45:47.267Z,15.98
2022-08-31T06:46:47.575Z,16.01
2022-08-31T06:47:47.157Z,15.96
2022-08-31T06:48:47.197Z,15.98
2022-08-31T06:49:47.169Z,15.93
2022-08-31T06:50:47.171Z,15.91
2022-08-31T06:51:47.201Z,15.93
2022-08-31T06:52:47.212Z,15.96
2022-08-31T06:53:47.150Z,15.99
2022-08-31T06:54:47.145Z,16.11
2022-08-31T06:55:47.089Z,16.14
2022-08-31T06:56:47.141Z,16.18
2022-08-31T06:57:47.043Z,16.25
2022-08-31T06:58:47.072Z,16.32
2022-08-31T06:59:47.039Z,16.40
2022-08-31T07:00:47.011Z,16.47
2022-08-31T07:01:47.130Z,16.48
2022-08-31T07:02:52.985Z,16.54
2022-08-31T07:03:46.983Z,16.59
2022-08-31T07:04:46.971Z,16.54
2022-08-31T07:05:46.946Z,16.48
2022-08-31T07:06:46.965Z,16.50
2022-08-31T07:07:46.934Z,16.55
2022-08-31T07:08:46.971Z,16.60
2022-08-31T07:09:46.912Z,16.50
2022-08-31T07:10:46.898Z,16.47
2022-08-31T07:11:46.898Z,16.45
2022-08-31T07:12:46.876Z,16.50
2022-08-31T07:13:46.867Z,16.51
2022-08-31T07:14:54.873Z,16.54
2022-08-31T07:15:46.919Z,16.51
2022-08-31T07:16:46.959Z,16.52
2022-08-31T07:17:46.815Z,16.55
2022-08-31T07:18:46.825Z,16.66
2022-08-31T07:19:46.822Z,16.75
2022-08-31T07:20:46.777Z,16.81
2022-08-31T07:21:46.792Z,16.85
2022-08-31T07:22:46.789Z,16.91
2022-08-31T07:23:46.944Z,16.95
2022-08-31T07:24:46.816Z,17.00
2022-08-31T07:25:46.746Z,17.00
2022-08-31T07:26:46.762Z,16.99
2022-08-31T07:27:46.729Z,16.98
2022-08-31T07:28:46.694Z,16.95
2022-08-31T07:29:46.697Z,16.98
2022-08-31T07:30:46.727Z,17.02
2022-08-31T07:31:46.765Z,17.06
2022-08-31T07:32:46.670Z,17.02
2022-08-31T07:33:46.662Z,17.05
2022-08-31T07:34:47.961Z,17.10
2022-08-31T07:35:46.620Z,17.14
2022-08-31T07:36:46.632Z,17.17
2022-08-31T07:37:46.599Z,17.06
2022-08-31T07:38:46.626Z,17.06
2022-08-31T07:39:46.603Z,17.07
2022-08-31T07:40:46.624Z,17.12
2022-08-31T07:41:46.589Z,17.09
2022-08-31T07:42:46.581Z,17.02
2022-08-31T07:43:46.623Z,17.06
2022-08-31T07:44:53.010Z,17.09
2022-08-31T07:45:46.572Z,17.02
2022-08-31T07:46:46.505Z,16.87
2022-08-31T07:47:46.559Z,16.96
2022-08-31T07:48:46.516Z,17.02
2022-08-31T07:49:46.481Z,17.12
2022-08-31T07:50:46.482Z,17.18
2022-08-31T07:51:46.447Z,17.25
2022-08-31T07:52:46.450Z,17.33
2022-08-31T07:53:46.491Z,17.36
2022-08-31T07:54:46.444Z,17.49
2022-08-31T07:55:46.413Z,17.54
2022-08-31T07:56:46.393Z,17.58
2022-08-31T07:57:46.400Z,17.66
2022-08-31T07:58:46.417Z,17.60
2022-08-31T07:59:46.383Z,17.54
2022-08-31T08:00:46.345Z,17.53
2022-08-31T08:01:46.410Z,17.54
2022-08-31T08:02:50.877Z,17.49
2022-08-31T08:03:46.378Z,17.55
2022-08-31T08:04:46.346Z,17.65
2022-08-31T08:05:46.303Z,17.76
2022-08-31T08:06:46.286Z,17.83
2022-08-31T08:07:46.398Z,17.86
2022-08-31T08:08:57.050Z,17.76
2022-08-31T08:09:46.327Z,17.79
2022-08-31T08:10:46.792Z,17.86
2022-08-31T08:11:46.237Z,17.86
2022-08-31T08:12:46.266Z,17.91
2022-08-31T08:13:46.228Z,17.96
2022-08-31T08:14:46.224Z,18.07
2022-08-31T08:15:46.362Z,18.14
2022-08-31T08:16:46.209Z,18.23
2022-08-31T08:17:46.352Z,18.25
2022-08-31T08:18:46.240Z,18.23
2022-08-31T08:19:46.151Z,18.31
2022-08-31T08:20:46.204Z,18.31
2022-08-31T08:21:46.160Z,18.36
2022-08-31T08:22:55.032Z,18.47
2022-08-31T08:23:46.095Z,18.57
2022-08-31T08:24:46.112Z,18.69
2022-08-31T08:25:46.088Z,18.79
2022-08-31T08:26:46.105Z,18.83
2022-08-31T08:27:46.066Z,18.75
2022-08-31T08:28:46.053Z,18.69
2022-08-31T08:29:46.195Z,18.76
2022-08-31T08:30:46.122Z,18.89
2022-08-31T08:31:46.132Z,19.01
2022-08-31T08:32:46.167Z,19.15
2022-08-31T08:33:46.042Z,19.25
2022-08-31T08:34:45.977Z,19.39
2022-08-31T08:35:46.017Z,19.52
2022-08-31T08:36:45.966Z,19.62
2022-08-31T08:38:07.048Z,19.70
2022-08-31T08:38:45.932Z,19.78
2022-08-31T08:39:45.913Z,19.80
2022-08-31T08:40:46.072Z,19.83
2022-08-31T08:41:45.903Z,19.85
2022-08-31T08:42:45.918Z,19.86
2022-08-31T08:43:52.504Z,19.87
2022-08-31T08:44:45.861Z,19.87
2022-08-31T08:45:45.900Z,19.89
2022-08-31T08:46:45.928Z,19.87
2022-08-31T08:47:45.934Z,19.87
2022-08-31T08:48:45.820Z,19.80
2022-08-31T08:49:45.823Z,19.65
2022-08-31T08:50:45.808Z,19.61
2022-08-31T08:51:45.830Z,19.60
2022-08-31T08:52:45.838Z,19.61
2022-08-31T08:53:45.783Z,19.64
2022-08-31T08:54:45.874Z,19.71
2022-08-31T08:55:45.753Z,19.79
2022-08-31T08:56:45.739Z,19.92
2022-08-31T08:57:45.778Z,20.05
2022-08-31T08:58:45.732Z,20.16
2022-08-31T08:59:45.744Z,20.33
2022-08-31T09:00:45.702Z,20.48
2022-08-31T09:01:45.874Z,20.57
2022-08-31T09:02:45.768Z,20.64
2022-08-31T09:03:45.694Z,20.73
2022-08-31T09:04:45.637Z,20.78
2022-08-31T09:05:45.636Z,20.85
2022-08-31T09:06:47.658Z,20.94
2022-08-31T09:07:45.623Z,20.96
2022-08-31T09:08:45.606Z,20.90
2022-08-31T09:09:45.599Z,20.90
2022-08-31T09:10:45.572Z,20.91
2022-08-31T09:11:45.572Z,21.00
2022-08-31T09:12:45.553Z,21.06
2022-08-31T09:13:45.598Z,21.12
2022-08-31T09:14:45.533Z,21.11
2022-08-31T09:15:45.573Z,20.97
2022-08-31T09:16:45.513Z,20.78
2022-08-31T09:17:45.494Z,20.69
2022-08-31T09:18:45.480Z,20.76
2022-08-31T09:19:45.522Z,20.91
2022-08-31T09:20:45.681Z,21.06
2022-08-31T09:21:45.471Z,21.24
2022-08-31T09:22:45.473Z,21.37
2022-08-31T09:23:45.427Z,21.51
2022-08-31T09:24:45.500Z,21.66
2022-08-31T09:25:45.428Z,21.68
2022-08-31T09:26:45.412Z,21.77
2022-08-31T09:27:45.392Z,21.91
2022-08-31T09:28:45.370Z,22.08
2022-08-31T09:29:45.400Z,22.17
2022-08-31T09:30:45.540Z,22.17
2022-08-31T09:31:45.417Z,22.19
2022-08-31T09:32:45.328Z,21.81
2022-08-31T09:33:45.421Z,21.73
2022-08-31T09:34:45.315Z,21.90
2022-08-31T09:35:45.320Z,22.08
2022-08-31T09:36:45.302Z,22.27
2022-08-31T09:37:45.273Z,22.38
2022-08-31T09:38:45.276Z,22.26
2022-08-31T09:39:45.241Z,22.20
2022-08-31T09:40:45.297Z,22.09
2022-08-31T09:41:45.305Z,22.02
2022-08-31T09:42:45.217Z,22.08
2022-08-31T09:43:45.222Z,22.19
2022-08-31T09:44:45.298Z,22.39
2022-08-31T09:45:45.214Z,22.54
2022-08-31T09:46:45.216Z,22.70
2022-08-31T09:47:45.154Z,22.79
2022-08-31T09:48:45.150Z,22.82
2022-08-31T09:49:45.158Z,22.86
2022-08-31T09:50:45.375Z,22.91
2022-08-31T09:51:45.138Z,23.01
2022-08-31T09:52:45.114Z,22.91
2022-08-31T09:53:45.139Z,22.63
2022-08-31T09:54:47.289Z,22.51
2022-08-31T09:55:45.084Z,22.60
2022-08-31T09:56:45.063Z,22.75
2022-08-31T09:57:45.060Z,22.88
2022-08-31T09:58:45.072Z,23.01
2022-08-31T09:59:45.053Z,23.06
2022-08-31T10:00:45.014Z,22.91
2022-08-31T10:01:45.263Z,22.97
2022-08-31T10:02:45.002Z,23.11
2022-08-31T10:03:44.995Z,23.16
2022-08-31T10:04:45.003Z,23.25
2022-08-31T10:05:44.962Z,23.38
2022-08-31T10:06:44.939Z,23.25
2022-08-31T10:07:44.942Z,22.79
2022-08-31T10:08:44.973Z,22.67
2022-08-31T10:09:44.924Z,22.74
2022-08-31T10:10:44.907Z,22.93
2022-08-31T10:11:44.909Z,23.18
2022-08-31T10:12:44.879Z,23.34
2022-08-31T10:13:44.889Z,23.47
2022-08-31T10:14:44.865Z,23.53
2022-08-31T10:15:44.915Z,23.60
2022-08-31T10:16:44.833Z,23.79
2022-08-31T10:17:44.889Z,23.96
2022-08-31T10:18:45.063Z,24.04
2022-08-31T10:19:44.817Z,23.62
2022-08-31T10:20:44.789Z,23.45
2022-08-31T10:21:44.814Z,23.22
2022-08-31T10:22:44.765Z,23.25
2022-08-31T10:23:44.817Z,23.50
2022-08-31T10:24:44.787Z,23.69
2022-08-31T10:25:44.736Z,23.96
2022-08-31T10:26:44.761Z,24.04
2022-08-31T10:27:44.724Z,24.06
2022-08-31T10:28:44.711Z,24.06
2022-08-31T10:29:44.776Z,24.11
2022-08-31T10:30:44.715Z,24.02
2022-08-31T10:31:44.699Z,23.69
2022-08-31T10:32:44.677Z,23.82
2022-08-31T10:33:44.663Z,23.96
2022-08-31T10:34:44.673Z,24.02
2022-08-31T10:35:44.626Z,23.79
2022-08-31T10:36:44.615Z,23.79
2022-08-31T10:37:44.615Z,23.79
2022-08-31T10:38:44.618Z,23.90
2022-08-31T10:39:44.606Z,24.09
2022-08-31T10:40:44.716Z,24.15
2022-08-31T10:41:44.554Z,24.24
2022-08-31T10:42:44.556Z,24.09
2022-08-31T10:43:44.555Z,24.15
2022-08-31T10:44:50.111Z,24.11
2022-08-31T10:45:44.545Z,24.05
2022-08-31T10:46:44.605Z,24.04
2022-08-31T10:47:44.500Z,24.08
2022-08-31T10:48:44.489Z,24.05
2022-08-31T10:49:44.516Z,24.15
2022-08-31T10:50:44.530Z,24.05
2022-08-31T10:51:44.461Z,24.00
2022-08-31T10:52:44.439Z,24.11
2022-08-31T10:53:44.436Z,24.29
2022-08-31T10:54:44.476Z,24.37
2022-08-31T10:55:44.498Z,24.44
2022-08-31T10:56:44.434Z,24.55
2022-08-31T10:57:44.388Z,24.49
2022-08-31T10:58:44.403Z,24.46
2022-08-31T10:59:44.632Z,24.60
2022-08-31T11:00:44.365Z,24.74
2022-08-31T11:01:44.482Z,24.68
2022-08-31T11:02:44.392Z,24.60
2022-08-31T11:03:44.362Z,24.00
2022-08-31T11:04:44.379Z,23.75
2022-08-31T11:05:47.528Z,23.93
2022-08-31T11:06:44.311Z,24.06
2022-08-31T11:07:44.301Z,23.86
2022-08-31T11:08:44.272Z,23.87
2022-08-31T11:09:44.273Z,24.08
2022-08-31T11:10:44.261Z,24.34
2022-08-31T11:11:44.276Z,24.24
2022-08-31T11:12:44.270Z,24.14
2022-08-31T11:13:48.674Z,24.26
2022-08-31T11:14:44.221Z,24.34
2022-08-31T11:15:44.250Z,24.45
2022-08-31T11:16:44.199Z,24.66
2022-08-31T11:17:44.188Z,24.84
2022-08-31T11:18:44.179Z,25.04
2022-08-31T11:19:44.176Z,25.17
2022-08-31T11:20:44.150Z,25.31
2022-08-31T11:21:44.150Z,25.36
2022-08-31T11:22:44.157Z,25.23
2022-08-31T11:23:45.221Z,25.34
2022-08-31T11:24:44.126Z,25.45
2022-08-31T11:25:44.124Z,25.59
2022-08-31T11:26:44.094Z,25.76
2022-08-31T11:27:44.087Z,25.75
2022-08-31T11:28:44.074Z,25.69
2022-08-31T11:29:44.069Z,25.75
2022-08-31T11:30:44.177Z,25.78
2022-08-31T11:31:44.083Z,25.74
2022-08-31T11:32:44.043Z,25.75
2022-08-31T11:34:00.171Z,25.74
2022-08-31T11:34:44.007Z,25.23
2022-08-31T11:35:43.972Z,24.82
2022-08-31T11:36:43.999Z,24.80
2022-08-31T11:37:43.962Z,24.39
2022-08-31T11:38:43.967Z,24.37
2022-08-31T11:39:43.961Z,24.48
2022-08-31T11:40:44.205Z,24.56
2022-08-31T11:41:43.962Z,24.60
2022-08-31T11:42:43.909Z,24.80
2022-08-31T11:43:43.918Z,25.01
2022-08-31T11:44:43.967Z,25.12
2022-08-31T11:45:43.959Z,25.11
2022-08-31T11:46:43.966Z,25.20
2022-08-31T11:47:43.870Z,25.24
2022-08-31T11:48:43.853Z,25.20
2022-08-31T11:49:43.849Z,25.20
2022-08-31T11:50:43.845Z,25.29
2022-08-31T11:51:43.808Z,25.38
2022-08-31T11:52:43.807Z,25.38
2022-08-31T11:53:43.792Z,25.44
2022-08-31T11:54:43.823Z,25.59
2022-08-31T11:55:43.819Z,25.74
2022-08-31T11:56:43.814Z,25.61
2022-08-31T11:57:43.777Z,25.59
2022-08-31T11:58:43.760Z,25.63
2022-08-31T11:59:43.761Z,25.72
2022-08-31T12:00:43.724Z,25.76
2022-08-31T12:01:43.734Z,25.86
2022-08-31T12:02:43.773Z,25.90
2022-08-31T12:03:43.708Z,25.86
2022-08-31T12:04:43.681Z,25.74
2022-08-31T12:05:43.688Z,25.59
2022-08-31T12:06:43.707Z,25.42
2022-08-31T12:07:43.677Z,25.36
2022-08-31T12:08:43.645Z,25.07
2022-08-31T12:09:43.610Z,24.53
2022-08-31T12:10:43.627Z,24.21
2022-08-31T12:11:43.588Z,24.26
2022-08-31T12:12:43.958Z,24.29
2022-08-31T12:13:43.616Z,24.31
2022-08-31T12:14:43.568Z,24.44
2022-08-31T12:15:43.605Z,24.66
2022-08-31T12:16:43.560Z,24.93
2022-08-31T12:17:43.542Z,25.05
2022-08-31T12:18:43.517Z,24.75
2022-08-31T12:19:43.548Z,24.60
2022-08-31T12:20:43.494Z,24.79
2022-08-31T12:21:43.555Z,24.94
2022-08-31T12:22:43.470Z,25.22
2022-08-31T12:23:43.505Z,25.38
2022-08-31T12:24:49.110Z,25.63
2022-08-31T12:25:43.488Z,25.81
2022-08-31T12:26:45.426Z,26.11
2022-08-31T12:27:43.517Z,25.97
2022-08-31T12:28:43.471Z,25.97
2022-08-31T12:29:43.393Z,25.61
2022-08-31T12:30:43.442Z,25.45
2022-08-31T12:31:43.364Z,25.38
2022-08-31T12:32:43.398Z,25.17
2022-08-31T12:33:43.366Z,24.51
2022-08-31T12:34:43.384Z,24.49
2022-08-31T12:35:43.350Z,24.68
2022-08-31T12:36:43.325Z,24.68
2022-08-31T12:37:43.354Z,24.66
2022-08-31T12:38:43.306Z,24.83
2022-08-31T12:39:43.306Z,24.93
2022-08-31T12:40:43.333Z,24.93
2022-08-31T12:41:43.280Z,24.92
2022-08-31T12:42:43.265Z,24.99
2022-08-31T12:43:43.228Z,25.04
2022-08-31T12:44:43.223Z,24.97
2022-08-31T12:45:43.254Z,25.04
2022-08-31T12:46:43.274Z,25.08
2022-08-31T12:47:43.189Z,25.05
2022-08-31T12:48:43.218Z,24.77
2022-08-31T12:49:43.168Z,24.64
2022-08-31T12:50:43.202Z,24.45
2022-08-31T12:51:43.152Z,24.48
2022-08-31T12:52:43.131Z,24.33